IRD weather

Ishurdi Airport
Ishurdi, Rajshahi Division, Bangladesh

Public forecast

Using degrees Celsius for public forecast. Weather courtesy of forecast.io.

METAR (pilot weather report)

Closest report is Hazrat Shahjalal International Airport, 76.3 nm (141.2 km) ESE. Retrieved 2019/09/15 06:30 UTC (0 seconds ago):

VGHS 150630Z 19006KT 4000 HZ SCT015 BKN100 32/25 Q1006 NOSIG

TAF (pilot weather forecast)

Closest forecast is Hazrat Shahjalal International Airport, 76.3 nm (141.2 km) ESE. Retrieved 2019/09/15 06:00 UTC (29 minutes ago):

TAF VGHS 150500Z 1506/1612 20010KT 4000 HZ SCT015 BKN100 TEMPO 1506/1515 20025KT 2500 RA/TSRA BKN008 FEW025CB OVC090 BECMG 1518/1520 16006KT 3500 HZ SCT012 BKN100 TEMPO 1518/1606 20025KT 2500 RA/TSRA BKN008 FEW025CB OVC090 BECMG 1606/1608 19008KT 4000 HZ SCT015 BKN100